Etusivu
METAR-TAF:

METAR-TAF

Lentoasemat :

Craig, Colorado, Yhdysvallat

Leveyspiiri: 40-29-36N, Pituuspiiri: 107-31-25W, korkeus merenpinnasta: 1888 m

Tämänhetkinen sää

Tämä raportti tehtiin 1 tunti ja 4 minuuttia sitten, kello 18.53 UTC
Tuuli 17 kn lounaasta puuskistuen 29 kn:hen
Lämpötila 16°C
Kosteus 27%
Ilmanpaine 1010 hPa
Näkyvyys: 16.1 km
Hajonneita pilviä 9000 ft:n korkeudessa

METAR: KCAG 051853Z AUTO 23017G29KT 10SM BKN090 16/M03 A2982 RMK AO2 PK WND 21029/1849 SLP063 T01561028

Aika: 13:57 (19:57 UTC)


TAF: puuttuu

Säähavainnot ja -ennusteet yli 4000 lentoasemalta (METAR- ja TAF-raportit).

Käytössä olevat sääasemat on merkitty karttaan keltaisilla ja punaisilla pisteillä.

Aseta hiiri pisteen päälle nähdäksesi sääaseman nimen.

Klikkaa sitten nähdäksesi säähavainnot ja -ennusteet.

Kartan vaihtaminen: klikkaa mustalla rastilla varustettuja vihreitä pisteitä, niin voit zoomata sisään; viivalla varustettua vihreää pistettä, niin voit zoomata ulos tai vihreitä nuolia, niin pääset viereisille kartoille.


METAR-TAF: